createdAt,value
2018-09-22T00:00:59.056Z,1009.75
2018-09-22T00:01:59.065Z,1009.82
2018-09-22T00:02:59.074Z,1009.84
2018-09-22T00:03:59.074Z,1009.87
2018-09-22T00:04:59.093Z,1009.86
2018-09-22T00:05:59.101Z,1009.77
2018-09-22T00:06:59.129Z,1009.81
2018-09-22T00:07:59.126Z,1009.92
2018-09-22T00:08:59.093Z,1009.87
2018-09-22T00:09:59.092Z,1009.92
2018-09-22T00:10:59.093Z,1009.94
2018-09-22T00:11:59.070Z,1009.96
2018-09-22T00:12:59.064Z,1010.01
2018-09-22T00:13:59.122Z,1009.97
2018-09-22T00:14:59.107Z,1009.93
2018-09-22T00:15:59.117Z,1009.98
2018-09-22T00:16:59.132Z,1009.95
2018-09-22T00:17:59.104Z,1009.95
2018-09-22T00:18:59.090Z,1009.94
2018-09-22T00:19:59.085Z,1009.95
2018-09-22T00:20:59.096Z,1009.97
2018-09-22T00:21:59.111Z,1009.98
2018-09-22T00:22:59.090Z,1009.98
2018-09-22T00:23:59.120Z,1010.02
2018-09-22T00:24:59.102Z,1009.97
2018-09-22T00:25:59.162Z,1010.04
2018-09-22T00:26:59.117Z,1010.04
2018-09-22T00:27:59.146Z,1009.99
2018-09-22T00:28:59.121Z,1010.03
2018-09-22T00:29:59.108Z,1010.02
2018-09-22T00:30:59.136Z,1010.05
2018-09-22T00:31:59.101Z,1010.03
2018-09-22T00:32:59.112Z,1010.13
2018-09-22T00:33:59.104Z,1010.09
2018-09-22T00:34:59.150Z,1010.14
2018-09-22T00:35:59.108Z,1010.14
2018-09-22T00:36:59.137Z,1010.13
2018-09-22T00:37:59.103Z,1010.19
2018-09-22T00:38:59.106Z,1010.19
2018-09-22T00:39:59.175Z,1010.22
2018-09-22T00:40:59.119Z,1010.25
2018-09-22T00:41:59.135Z,1010.19
2018-09-22T00:42:59.125Z,1010.23
2018-09-22T00:43:59.133Z,1010.19
2018-09-22T00:44:59.119Z,1010.23
2018-09-22T00:45:59.148Z,1010.20
2018-09-22T00:46:59.133Z,1010.21
2018-09-22T00:47:59.143Z,1010.19
2018-09-22T00:48:59.126Z,1010.24
2018-09-22T00:49:59.117Z,1010.24
2018-09-22T00:50:59.168Z,1010.30
2018-09-22T00:51:59.130Z,1010.26
2018-09-22T00:52:59.134Z,1010.28
2018-09-22T00:53:59.137Z,1010.28
2018-09-22T00:54:59.123Z,1010.35
2018-09-22T00:55:59.150Z,1010.33
2018-09-22T00:56:59.147Z,1010.38
2018-09-22T00:57:59.177Z,1010.38
2018-09-22T00:58:59.148Z,1010.44
2018-09-22T00:59:59.139Z,1010.42
2018-09-22T01:00:59.154Z,1010.45
2018-09-22T01:01:59.168Z,1010.43
2018-09-22T01:02:59.367Z,1010.44
2018-09-22T01:03:59.173Z,1010.46
2018-09-22T01:04:59.168Z,1010.47
2018-09-22T01:05:59.157Z,1010.43
2018-09-22T01:06:59.257Z,1010.48
2018-09-22T01:07:59.158Z,1010.43
2018-09-22T01:08:59.177Z,1010.47
2018-09-22T01:09:59.156Z,1010.51
2018-09-22T01:10:59.152Z,1010.53
2018-09-22T01:11:59.165Z,1010.50
2018-09-22T01:12:59.178Z,1010.50
2018-09-22T01:13:59.175Z,1010.51
2018-09-22T01:14:59.180Z,1010.53
2018-09-22T01:15:59.230Z,1010.53
2018-09-22T01:16:59.188Z,1010.57
2018-09-22T01:17:59.168Z,1010.60
2018-09-22T01:18:59.193Z,1010.59
2018-09-22T01:19:59.188Z,1010.56
2018-09-22T01:20:59.185Z,1010.65
2018-09-22T01:21:59.231Z,1010.64
2018-09-22T01:22:59.267Z,1010.65
2018-09-22T01:23:59.187Z,1010.61
2018-09-22T01:24:59.209Z,1010.64
2018-09-22T01:25:59.190Z,1010.64
2018-09-22T01:26:59.205Z,1010.67
2018-09-22T01:27:59.216Z,1010.66
2018-09-22T01:28:59.238Z,1010.68
2018-09-22T01:29:59.213Z,1010.73
2018-09-22T01:30:59.201Z,1010.78
2018-09-22T01:31:59.297Z,1010.85
2018-09-22T01:32:59.213Z,1010.84
2018-09-22T01:33:59.240Z,1010.84
2018-09-22T01:34:59.200Z,1010.92
2018-09-22T01:35:59.207Z,1010.93
2018-09-22T01:36:59.246Z,1010.97
2018-09-22T01:37:59.214Z,1010.93
2018-09-22T01:38:59.227Z,1010.93
2018-09-22T01:39:59.237Z,1010.98
2018-09-22T01:40:59.222Z,1010.96
2018-09-22T01:41:59.199Z,1010.97
2018-09-22T01:42:59.257Z,1010.96
2018-09-22T01:43:59.256Z,1010.95
2018-09-22T01:44:59.252Z,1011.01
2018-09-22T01:45:59.210Z,1011.01
2018-09-22T01:46:59.347Z,1010.99
2018-09-22T01:47:59.210Z,1011.01
2018-09-22T01:48:59.207Z,1010.98
2018-09-22T01:49:59.231Z,1010.95
2018-09-22T01:50:59.208Z,1010.93
2018-09-22T01:51:59.289Z,1011.00
2018-09-22T01:52:59.233Z,1011.05
2018-09-22T01:53:59.234Z,1011.02
2018-09-22T01:54:59.234Z,1011.04
2018-09-22T01:55:59.218Z,1011.05
2018-09-22T01:56:59.213Z,1011.03
2018-09-22T01:57:59.211Z,1011.05
2018-09-22T01:58:59.233Z,1011.05
2018-09-22T01:59:59.212Z,1011.09
2018-09-22T02:00:59.245Z,1011.07
2018-09-22T02:01:59.242Z,1011.08
2018-09-22T02:02:59.224Z,1011.15
2018-09-22T02:03:59.229Z,1011.16
2018-09-22T02:04:59.223Z,1011.11
2018-09-22T02:05:59.320Z,1011.13
2018-09-22T02:06:59.244Z,1011.19
2018-09-22T02:07:59.256Z,1011.16
2018-09-22T02:08:59.319Z,1011.11
2018-09-22T02:09:59.273Z,1011.13
2018-09-22T02:10:59.281Z,1011.17
2018-09-22T02:11:59.359Z,1011.22
2018-09-22T02:12:59.321Z,1011.22
2018-09-22T02:13:59.237Z,1011.22
2018-09-22T02:14:59.259Z,1011.21
2018-09-22T02:15:59.255Z,1011.24
2018-09-22T02:16:59.331Z,1011.22
2018-09-22T02:17:59.310Z,1011.24
2018-09-22T02:18:59.301Z,1011.29
2018-09-22T02:19:59.308Z,1011.28
2018-09-22T02:20:59.347Z,1011.27
2018-09-22T02:21:59.322Z,1011.31
2018-09-22T02:22:59.257Z,1011.24
2018-09-22T02:23:59.246Z,1011.26
2018-09-22T02:24:59.261Z,1011.28
2018-09-22T02:25:59.291Z,1011.27
2018-09-22T02:26:59.311Z,1011.27
2018-09-22T02:27:59.275Z,1011.32
2018-09-22T02:28:59.286Z,1011.31
2018-09-22T02:29:59.398Z,1011.28
2018-09-22T02:30:59.290Z,1011.27
2018-09-22T02:31:59.318Z,1011.25
2018-09-22T02:32:59.299Z,1011.26
2018-09-22T02:33:59.264Z,1011.31
2018-09-22T02:34:59.276Z,1011.30
2018-09-22T02:35:59.327Z,1011.35
2018-09-22T02:36:59.392Z,1011.37
2018-09-22T02:37:59.293Z,1011.31
2018-09-22T02:38:59.287Z,1011.33
2018-09-22T02:39:59.293Z,1011.36
2018-09-22T02:40:59.268Z,1011.35
2018-09-22T02:41:59.302Z,1011.34
2018-09-22T02:42:59.290Z,1011.36
2018-09-22T02:43:59.296Z,1011.40
2018-09-22T02:44:59.328Z,1011.41
2018-09-22T02:45:59.299Z,1011.43
2018-09-22T02:46:59.308Z,1011.47
2018-09-22T02:47:59.291Z,1011.45
2018-09-22T02:48:59.331Z,1011.43
2018-09-22T02:49:59.416Z,1011.45
2018-09-22T02:50:59.306Z,1011.52
2018-09-22T02:51:59.281Z,1011.50
2018-09-22T02:52:59.328Z,1011.51
2018-09-22T02:53:59.331Z,1011.55
2018-09-22T02:54:59.299Z,1011.56
2018-09-22T02:55:59.306Z,1011.56
2018-09-22T02:56:59.312Z,1011.58
2018-09-22T02:57:59.340Z,1011.59
2018-09-22T02:58:59.317Z,1011.61
2018-09-22T02:59:59.314Z,1011.63
2018-09-22T03:00:59.378Z,1011.61
2018-09-22T03:01:59.314Z,1011.58
2018-09-22T03:02:59.407Z,1011.60
2018-09-22T03:03:59.342Z,1011.57
2018-09-22T03:04:59.317Z,1011.56
2018-09-22T03:05:59.329Z,1011.55
2018-09-22T03:06:59.360Z,1011.55
2018-09-22T03:07:59.317Z,1011.58
2018-09-22T03:08:59.321Z,1011.55
2018-09-22T03:09:59.325Z,1011.56
2018-09-22T03:10:59.315Z,1011.59
2018-09-22T03:11:59.388Z,1011.57
2018-09-22T03:12:59.331Z,1011.59
2018-09-22T03:13:59.307Z,1011.60
2018-09-22T03:14:59.309Z,1011.65
2018-09-22T03:15:59.360Z,1011.67
2018-09-22T03:16:59.403Z,1011.67
2018-09-22T03:17:59.322Z,1011.68
2018-09-22T03:18:59.361Z,1011.65
2018-09-22T03:19:59.317Z,1011.69
2018-09-22T03:20:59.322Z,1011.67
2018-09-22T03:21:59.328Z,1011.72
2018-09-22T03:22:59.352Z,1011.72
2018-09-22T03:23:59.346Z,1011.69
2018-09-22T03:24:59.343Z,1011.72
2018-09-22T03:25:59.334Z,1011.76
2018-09-22T03:26:59.379Z,1011.82
2018-09-22T03:27:59.394Z,1011.83
2018-09-22T03:28:59.339Z,1011.76
2018-09-22T03:29:59.352Z,1011.80
2018-09-22T03:30:59.368Z,1011.85
2018-09-22T03:31:59.346Z,1011.84
2018-09-22T03:32:59.372Z,1011.83
2018-09-22T03:33:59.338Z,1011.78
2018-09-22T03:34:59.434Z,1011.84
2018-09-22T03:35:59.380Z,1011.90
2018-09-22T03:36:59.342Z,1011.91
2018-09-22T03:37:59.365Z,1011.87
2018-09-22T03:38:59.357Z,1011.85
2018-09-22T03:39:59.370Z,1011.90
2018-09-22T03:40:59.362Z,1011.95
2018-09-22T03:41:59.373Z,1011.97
2018-09-22T03:42:59.349Z,1011.94
2018-09-22T03:43:59.381Z,1011.96
2018-09-22T03:44:59.344Z,1011.94
2018-09-22T03:45:59.360Z,1011.98
2018-09-22T03:46:59.352Z,1011.96
2018-09-22T03:47:59.370Z,1011.98
2018-09-22T03:48:59.371Z,1011.93
2018-09-22T03:49:59.352Z,1011.98
2018-09-22T03:50:59.371Z,1011.98
2018-09-22T03:51:59.442Z,1012.02
2018-09-22T03:52:59.347Z,1011.99
2018-09-22T03:53:59.355Z,1012.01
2018-09-22T03:54:59.374Z,1012.04
2018-09-22T03:55:59.369Z,1012.00
2018-09-22T03:56:59.375Z,1012.04
2018-09-22T03:57:59.359Z,1012.02
2018-09-22T03:58:59.358Z,1012.00
2018-09-22T03:59:59.377Z,1012.02
2018-09-22T04:00:59.399Z,1012.04
2018-09-22T04:01:59.372Z,1012.01
2018-09-22T04:02:59.372Z,1012.00
2018-09-22T04:03:59.386Z,1012.00
2018-09-22T04:04:59.427Z,1011.98
2018-09-22T04:05:59.432Z,1011.96
2018-09-22T04:06:59.368Z,1011.98
2018-09-22T04:07:59.370Z,1012.00
2018-09-22T04:08:59.382Z,1012.02
2018-09-22T04:09:59.382Z,1012.01
2018-09-22T04:10:59.395Z,1012.01
2018-09-22T04:11:59.384Z,1012.00
2018-09-22T04:12:59.378Z,1012.01
2018-09-22T04:13:59.389Z,1012.06
2018-09-22T04:14:59.410Z,1012.06
2018-09-22T04:15:59.408Z,1012.05
2018-09-22T04:16:59.413Z,1012.07
2018-09-22T04:17:59.416Z,1012.04
2018-09-22T04:18:59.394Z,1012.09
2018-09-22T04:19:59.402Z,1012.07
2018-09-22T04:20:59.384Z,1012.03
2018-09-22T04:21:59.400Z,1012.07
2018-09-22T04:22:59.432Z,1012.04
2018-09-22T04:23:59.393Z,1012.09
2018-09-22T04:24:59.391Z,1012.15
2018-09-22T04:25:59.426Z,1012.20
2018-09-22T04:26:59.406Z,1012.23
2018-09-22T04:27:59.433Z,1012.24
2018-09-22T04:28:59.448Z,1012.16
2018-09-22T04:29:59.387Z,1012.17
2018-09-22T04:30:59.412Z,1012.17
2018-09-22T04:31:59.410Z,1012.23
2018-09-22T04:32:59.430Z,1012.13
2018-09-22T04:33:59.417Z,1012.13
2018-09-22T04:34:59.413Z,1012.19
2018-09-22T04:35:59.418Z,1012.25
2018-09-22T04:36:59.423Z,1012.29
2018-09-22T04:37:59.438Z,1012.32
2018-09-22T04:38:59.413Z,1012.31
2018-09-22T04:39:59.515Z,1012.36
2018-09-22T04:40:59.415Z,1012.34
2018-09-22T04:41:59.409Z,1012.36
2018-09-22T04:42:59.428Z,1012.44
2018-09-22T04:43:59.425Z,1012.38
2018-09-22T04:44:59.426Z,1012.28
2018-09-22T04:45:59.424Z,1012.28
2018-09-22T04:46:59.434Z,1012.32
2018-09-22T04:47:59.437Z,1012.37
2018-09-22T04:48:59.440Z,1012.43
2018-09-22T04:49:59.463Z,1012.38
2018-09-22T04:51:00.302Z,1012.39
2018-09-22T04:51:59.427Z,1012.40
2018-09-22T04:52:59.435Z,1012.39
2018-09-22T04:53:59.424Z,1012.41
2018-09-22T04:54:59.436Z,1012.45
2018-09-22T04:55:59.414Z,1012.47
2018-09-22T04:56:59.441Z,1012.40
2018-09-22T04:57:59.478Z,1012.41
2018-09-22T04:58:59.426Z,1012.41
2018-09-22T04:59:59.449Z,1012.43
2018-09-22T05:00:59.449Z,1012.48
2018-09-22T05:01:59.427Z,1012.48
2018-09-22T05:02:59.495Z,1012.53
2018-09-22T05:03:59.443Z,1012.52
2018-09-22T05:04:59.439Z,1012.58
2018-09-22T05:05:59.465Z,1012.58
2018-09-22T05:06:59.447Z,1012.63
2018-09-22T05:07:59.460Z,1012.63
2018-09-22T05:08:59.446Z,1012.61
2018-09-22T05:09:59.444Z,1012.58
2018-09-22T05:10:59.480Z,1012.61
2018-09-22T05:11:59.443Z,1012.60
2018-09-22T05:12:59.451Z,1012.59
2018-09-22T05:13:59.437Z,1012.62
2018-09-22T05:14:59.454Z,1012.63
2018-09-22T05:15:59.471Z,1012.68
2018-09-22T05:16:59.448Z,1012.71
2018-09-22T05:17:59.466Z,1012.69
2018-09-22T05:18:59.479Z,1012.70
2018-09-22T05:19:59.467Z,1012.76
2018-09-22T05:20:59.458Z,1012.77
2018-09-22T05:21:59.472Z,1012.72
2018-09-22T05:22:59.475Z,1012.81
2018-09-22T05:23:59.460Z,1012.81
2018-09-22T05:24:59.495Z,1012.80
2018-09-22T05:25:59.472Z,1012.79
2018-09-22T05:26:59.478Z,1012.82
2018-09-22T05:27:59.507Z,1012.87
2018-09-22T05:28:59.491Z,1012.84
2018-09-22T05:29:59.494Z,1012.90
2018-09-22T05:30:59.471Z,1012.88
2018-09-22T05:31:59.472Z,1012.90
2018-09-22T05:32:59.480Z,1012.89
2018-09-22T05:33:59.479Z,1012.88
2018-09-22T05:34:59.503Z,1012.87
2018-09-22T05:35:59.494Z,1012.88
2018-09-22T05:36:59.467Z,1012.93
2018-09-22T05:37:59.562Z,1012.94
2018-09-22T05:38:59.507Z,1012.94
2018-09-22T05:39:59.496Z,1012.95
2018-09-22T05:40:59.488Z,1013.00
2018-09-22T05:41:59.507Z,1013.04
2018-09-22T05:42:59.494Z,1013.11
2018-09-22T05:43:59.481Z,1013.12
2018-09-22T05:44:59.517Z,1013.09
2018-09-22T05:45:59.483Z,1013.13
2018-09-22T05:46:59.528Z,1013.21
2018-09-22T05:47:59.488Z,1013.13
2018-09-22T05:48:59.518Z,1013.17
2018-09-22T05:49:59.510Z,1013.10
2018-09-22T05:50:59.516Z,1013.19
2018-09-22T05:51:59.503Z,1013.18
2018-09-22T05:52:59.504Z,1013.18
2018-09-22T05:53:59.517Z,1013.20
2018-09-22T05:54:59.494Z,1013.24
2018-09-22T05:55:59.519Z,1013.24
2018-09-22T05:56:59.562Z,1013.25
2018-09-22T05:57:59.556Z,1013.22
2018-09-22T05:58:59.549Z,1013.19
2018-09-22T05:59:59.497Z,1013.16
2018-09-22T06:00:59.534Z,1013.16
2018-09-22T06:01:59.528Z,1013.18
2018-09-22T06:02:59.514Z,1013.19
2018-09-22T06:03:59.684Z,1013.22
2018-09-22T06:04:59.527Z,1013.24
2018-09-22T06:05:59.501Z,1013.25
2018-09-22T06:06:59.514Z,1013.18
2018-09-22T06:07:59.519Z,1013.20
2018-09-22T06:08:59.530Z,1013.27
2018-09-22T06:09:59.533Z,1013.21
2018-09-22T06:10:59.529Z,1013.24
2018-09-22T06:11:59.515Z,1013.25
2018-09-22T06:12:59.551Z,1013.25
2018-09-22T06:13:59.546Z,1013.26
2018-09-22T06:14:59.526Z,1013.26
2018-09-22T06:15:59.545Z,1013.24
2018-09-22T06:16:59.525Z,1013.29
2018-09-22T06:17:59.550Z,1013.30
2018-09-22T06:18:59.547Z,1013.29
2018-09-22T06:19:59.528Z,1013.28
2018-09-22T06:20:59.536Z,1013.29
2018-09-22T06:21:59.574Z,1013.33
2018-09-22T06:22:59.545Z,1013.33
2018-09-22T06:23:59.549Z,1013.38
2018-09-22T06:24:59.548Z,1013.37
2018-09-22T06:25:59.584Z,1013.38
2018-09-22T06:26:59.537Z,1013.33
2018-09-22T06:27:59.562Z,1013.36
2018-09-22T06:28:59.696Z,1013.34
2018-09-22T06:29:59.583Z,1013.39
2018-09-22T06:30:59.611Z,1013.40
2018-09-22T06:31:59.553Z,1013.37
2018-09-22T06:32:59.595Z,1013.39
2018-09-22T06:33:59.563Z,1013.38
2018-09-22T06:34:59.548Z,1013.37
2018-09-22T06:35:59.540Z,1013.35
2018-09-22T06:36:59.548Z,1013.35
2018-09-22T06:37:59.562Z,1013.35
2018-09-22T06:38:59.565Z,1013.42
2018-09-22T06:39:59.560Z,1013.43
2018-09-22T06:40:59.561Z,1013.44
2018-09-22T06:41:59.591Z,1013.49
2018-09-22T06:42:59.587Z,1013.51
2018-09-22T06:43:59.611Z,1013.48
2018-09-22T06:44:59.593Z,1013.47
2018-09-22T06:45:59.583Z,1013.44
2018-09-22T06:46:59.564Z,1013.45
2018-09-22T06:47:59.584Z,1013.44
2018-09-22T06:48:59.592Z,1013.44
2018-09-22T06:49:59.615Z,1013.48
2018-09-22T06:50:59.575Z,1013.47
2018-09-22T06:51:59.584Z,1013.47
2018-09-22T06:52:59.628Z,1013.46
2018-09-22T06:53:59.575Z,1013.42
2018-09-22T06:54:59.663Z,1013.45
2018-09-22T06:55:59.570Z,1013.42
2018-09-22T06:56:59.595Z,1013.45
2018-09-22T06:57:59.588Z,1013.43
2018-09-22T06:58:59.589Z,1013.46
2018-09-22T06:59:59.595Z,1013.47
2018-09-22T07:00:59.596Z,1013.57
2018-09-22T07:01:59.626Z,1013.56
2018-09-22T07:02:59.604Z,1013.57
2018-09-22T07:03:59.636Z,1013.55
2018-09-22T07:04:59.660Z,1013.58
2018-09-22T07:05:59.614Z,1013.60
2018-09-22T07:06:59.625Z,1013.62
2018-09-22T07:07:59.612Z,1013.66
2018-09-22T07:08:59.631Z,1013.70
2018-09-22T07:09:59.634Z,1013.75
2018-09-22T07:10:59.629Z,1013.76
2018-09-22T07:11:59.611Z,1013.77
2018-09-22T07:12:59.639Z,1013.75
2018-09-22T07:13:59.619Z,1013.77
2018-09-22T07:14:59.634Z,1013.74
2018-09-22T07:15:59.623Z,1013.74
2018-09-22T07:16:59.626Z,1013.71
2018-09-22T07:17:59.621Z,1013.74
2018-09-22T07:18:59.635Z,1013.82
2018-09-22T07:19:59.631Z,1013.79
2018-09-22T07:20:59.637Z,1013.81
2018-09-22T07:21:59.650Z,1013.83
2018-09-22T07:22:59.642Z,1013.83
2018-09-22T07:23:59.657Z,1013.87
2018-09-22T07:24:59.719Z,1013.92
2018-09-22T07:25:59.646Z,1013.93
2018-09-22T07:26:59.668Z,1013.96
2018-09-22T07:27:59.678Z,1013.98
2018-09-22T07:28:59.661Z,1014.01
2018-09-22T07:29:59.684Z,1013.97
2018-09-22T07:30:59.731Z,1013.96
2018-09-22T07:31:59.684Z,1013.90
2018-09-22T07:32:59.663Z,1013.90
2018-09-22T07:33:59.666Z,1013.87
2018-09-22T07:34:59.665Z,1013.93
2018-09-22T07:35:59.665Z,1013.95
2018-09-22T07:36:59.688Z,1013.94
2018-09-22T07:37:59.661Z,1013.95
2018-09-22T07:38:59.688Z,1013.93
2018-09-22T07:39:59.675Z,1013.97
2018-09-22T07:40:59.670Z,1014.02
2018-09-22T07:41:59.680Z,1014.04
2018-09-22T07:42:59.674Z,1014.10
2018-09-22T07:43:59.740Z,1014.13
2018-09-22T07:44:59.687Z,1014.19
2018-09-22T07:45:59.708Z,1014.18
2018-09-22T07:46:59.707Z,1014.15
2018-09-22T07:47:59.707Z,1014.20
2018-09-22T07:48:59.711Z,1014.27
2018-09-22T07:49:59.716Z,1014.22
2018-09-22T07:50:59.714Z,1014.23
2018-09-22T07:51:59.717Z,1014.23
2018-09-22T07:52:59.728Z,1014.32
2018-09-22T07:53:59.701Z,1014.30
2018-09-22T07:54:59.714Z,1014.40
2018-09-22T07:55:59.692Z,1014.42
2018-09-22T07:56:59.761Z,1014.33
2018-09-22T07:57:59.710Z,1014.33
2018-09-22T07:58:59.714Z,1014.24
2018-09-22T07:59:59.708Z,1014.20
2018-09-22T08:00:59.716Z,1014.22
2018-09-22T08:01:59.748Z,1014.16
2018-09-22T08:02:59.742Z,1014.31
2018-09-22T08:03:59.738Z,1014.04
2018-09-22T08:04:59.801Z,1014.03
2018-09-22T08:05:59.724Z,1014.07
2018-09-22T08:06:59.748Z,1014.19
2018-09-22T08:07:59.741Z,1014.37
2018-09-22T08:08:59.744Z,1014.25
2018-09-22T08:09:59.791Z,1014.25
2018-09-22T08:10:59.898Z,1014.48
2018-09-22T08:11:59.733Z,1014.55
2018-09-22T08:12:59.826Z,1014.30
2018-09-22T08:13:59.784Z,1014.34
2018-09-22T08:14:59.763Z,1014.47
2018-09-22T08:15:59.788Z,1014.68
2018-09-22T08:16:59.767Z,1014.56
2018-09-22T08:17:59.765Z,1014.50
2018-09-22T08:18:59.837Z,1014.50
2018-09-22T08:19:59.776Z,1014.72
2018-09-22T08:20:59.805Z,1014.42
2018-09-22T08:21:59.767Z,1014.41
2018-09-22T08:22:59.796Z,1014.41
2018-09-22T08:23:59.779Z,1014.48
2018-09-22T08:24:59.824Z,1014.56
2018-09-22T08:25:59.795Z,1014.53
2018-09-22T08:26:59.809Z,1014.60
2018-09-22T08:27:59.805Z,1014.69
2018-09-22T08:28:59.832Z,1014.71
2018-09-22T08:29:59.825Z,1014.62
2018-09-22T08:30:59.813Z,1014.63
2018-09-22T08:31:59.875Z,1014.69
2018-09-22T08:32:59.834Z,1014.69
2018-09-22T08:33:59.834Z,1014.76
2018-09-22T08:34:59.816Z,1014.78
2018-09-22T08:35:59.924Z,1014.74
2018-09-22T08:37:00.015Z,1014.70
2018-09-22T08:37:59.851Z,1014.71
2018-09-22T08:38:59.840Z,1014.72
2018-09-22T08:39:59.843Z,1014.73
2018-09-22T08:40:59.856Z,1014.84
2018-09-22T08:41:59.885Z,1014.97
2018-09-22T08:42:59.857Z,1014.85
2018-09-22T08:43:59.989Z,1014.74
2018-09-22T08:44:59.953Z,1014.84
2018-09-22T08:45:59.854Z,1014.82
2018-09-22T08:46:59.869Z,1014.88
2018-09-22T08:47:59.883Z,1014.44
2018-09-22T08:48:59.938Z,1014.83
2018-09-22T08:49:59.967Z,1014.89
2018-09-22T08:51:00.001Z,1015.01
2018-09-22T08:51:59.933Z,1015.01
2018-09-22T08:52:59.898Z,1014.77
2018-09-22T08:53:59.898Z,1014.79
2018-09-22T08:54:59.962Z,1014.75
2018-09-22T08:55:59.915Z,1014.98
2018-09-22T08:56:59.934Z,1015.03
2018-09-22T08:57:59.988Z,1015.08
2018-09-22T08:58:59.943Z,1015.10
2018-09-22T08:59:59.953Z,1014.97
2018-09-22T09:00:59.955Z,1014.84
2018-09-22T09:01:59.954Z,1015.04
2018-09-22T09:02:59.985Z,1015.04
2018-09-22T09:03:59.990Z,1015.05
2018-09-22T09:05:00.024Z,1014.92
2018-09-22T09:05:59.980Z,1014.87
2018-09-22T09:07:00.015Z,1014.75
2018-09-22T09:08:00.011Z,1014.84
2018-09-22T09:09:00.003Z,1014.76
2018-09-22T09:10:00.035Z,1014.83
2018-09-22T09:11:00.112Z,1014.74
2018-09-22T09:12:00.051Z,1014.80
2018-09-22T09:13:00.028Z,1014.65
2018-09-22T09:14:00.063Z,1014.71
2018-09-22T09:15:00.028Z,1014.66
2018-09-22T09:16:00.072Z,1014.64
2018-09-22T09:17:00.115Z,1014.54
2018-09-22T09:18:00.077Z,1014.56
2018-09-22T09:19:00.118Z,1014.51
2018-09-22T09:20:00.058Z,1014.52
2018-09-22T09:21:00.083Z,1014.54
2018-09-22T09:22:00.172Z,1014.63
2018-09-22T09:23:00.099Z,1014.60
2018-09-22T09:24:00.120Z,1014.49
2018-09-22T09:25:00.105Z,1014.47
2018-09-22T09:26:00.111Z,1014.50
2018-09-22T09:27:00.149Z,1014.40
2018-09-22T09:28:00.138Z,1014.42
2018-09-22T09:29:00.136Z,1014.47
2018-09-22T09:30:00.132Z,1014.41
2018-09-22T09:31:00.167Z,1014.62
2018-09-22T09:32:00.191Z,1014.61
2018-09-22T09:33:00.163Z,1014.63
2018-09-22T09:34:00.154Z,1014.68
2018-09-22T09:35:00.134Z,1014.60
2018-09-22T09:36:00.175Z,1014.52
2018-09-22T09:37:00.170Z,1014.47
2018-09-22T09:38:00.195Z,1014.46
2018-09-22T09:39:00.181Z,1014.51
2018-09-22T09:40:00.175Z,1014.49
2018-09-22T09:41:00.213Z,1014.46
2018-09-22T09:42:00.208Z,1014.45
2018-09-22T09:43:00.157Z,1014.43
2018-09-22T09:44:00.191Z,1014.41
2018-09-22T09:45:00.176Z,1014.34
2018-09-22T09:46:00.204Z,1014.18
2018-09-22T09:47:00.187Z,1014.11
2018-09-22T09:48:00.193Z,1014.09
2018-09-22T09:49:00.197Z,1014.08
2018-09-22T09:50:00.206Z,1014.09
2018-09-22T09:51:00.211Z,1014.11
2018-09-22T09:52:00.198Z,1014.06
2018-09-22T09:53:00.213Z,1014.01
2018-09-22T09:54:00.225Z,1014.02
2018-09-22T09:55:00.336Z,1014.01
2018-09-22T09:56:00.247Z,1013.95
2018-09-22T09:57:00.244Z,1013.92
2018-09-22T09:58:00.240Z,1013.90
2018-09-22T09:59:00.216Z,1013.91
2018-09-22T10:00:00.234Z,1013.94
2018-09-22T10:01:00.267Z,1013.92
2018-09-22T10:02:00.238Z,1013.92
2018-09-22T10:03:00.284Z,1013.98
2018-09-22T10:04:00.246Z,1013.93
2018-09-22T10:05:00.245Z,1014.00
2018-09-22T10:06:00.271Z,1014.02
2018-09-22T10:07:00.279Z,1013.98
2018-09-22T10:08:00.248Z,1013.99
2018-09-22T10:09:00.304Z,1014.01
2018-09-22T10:10:00.289Z,1014.15
2018-09-22T10:11:00.261Z,1014.07
2018-09-22T10:12:00.270Z,1014.15
2018-09-22T10:13:00.278Z,1014.26
2018-09-22T10:14:00.258Z,1014.00
2018-09-22T10:15:00.265Z,1014.10
2018-09-22T10:16:00.267Z,1013.98
2018-09-22T10:17:00.309Z,1014.12
2018-09-22T10:18:00.303Z,1014.11
2018-09-22T10:19:00.329Z,1014.06
2018-09-22T10:20:00.348Z,1014.05
2018-09-22T10:21:00.485Z,1014.00
2018-09-22T10:22:00.304Z,1013.97
2018-09-22T10:23:00.307Z,1013.89
2018-09-22T10:24:00.339Z,1013.89
2018-09-22T10:25:00.357Z,1013.83
2018-09-22T10:26:00.327Z,1013.94
2018-09-22T10:27:00.387Z,1013.93
2018-09-22T10:28:00.395Z,1013.99
2018-09-22T10:29:00.383Z,1014.19
2018-09-22T10:30:00.337Z,1014.11
2018-09-22T10:31:00.336Z,1014.28
2018-09-22T10:32:00.344Z,1014.22
2018-09-22T10:33:00.394Z,1014.27
2018-09-22T10:34:00.329Z,1014.32
2018-09-22T10:35:00.369Z,1014.22
2018-09-22T10:36:00.365Z,1014.02
2018-09-22T10:37:00.395Z,1014.07
2018-09-22T10:38:00.395Z,1013.95
2018-09-22T10:39:00.360Z,1013.98
2018-09-22T10:40:00.364Z,1014.00
2018-09-22T10:41:00.382Z,1013.96
2018-09-22T10:42:00.391Z,1013.92
2018-09-22T10:43:00.388Z,1013.88
2018-09-22T10:44:00.391Z,1013.83
2018-09-22T10:45:00.408Z,1013.81
2018-09-22T10:46:00.414Z,1013.75
2018-09-22T10:47:00.401Z,1013.79
2018-09-22T10:48:00.404Z,1013.79
2018-09-22T10:49:00.428Z,1013.68
2018-09-22T10:50:00.448Z,1013.69
2018-09-22T10:51:00.416Z,1013.64
2018-09-22T10:52:00.419Z,1013.59
2018-09-22T10:53:00.552Z,1013.65
2018-09-22T10:54:00.467Z,1013.73
2018-09-22T10:55:00.445Z,1013.73
2018-09-22T10:56:00.438Z,1013.78
2018-09-22T10:57:00.461Z,1013.68
2018-09-22T10:58:00.458Z,1013.77
2018-09-22T10:59:00.506Z,1013.71
2018-09-22T11:00:00.456Z,1013.73
2018-09-22T11:01:00.496Z,1013.74
2018-09-22T11:02:00.481Z,1013.75
2018-09-22T11:03:00.507Z,1013.76
2018-09-22T11:04:00.492Z,1013.73
2018-09-22T11:05:00.505Z,1013.69
2018-09-22T11:06:00.564Z,1013.66
2018-09-22T11:07:00.495Z,1013.65
2018-09-22T11:08:00.501Z,1013.54
2018-09-22T11:09:00.524Z,1013.52
2018-09-22T11:10:00.512Z,1013.57
2018-09-22T11:11:00.498Z,1013.62
2018-09-22T11:12:00.508Z,1013.65
2018-09-22T11:13:00.534Z,1013.65
2018-09-22T11:14:00.516Z,1013.64
2018-09-22T11:15:00.550Z,1013.62
2018-09-22T11:16:00.545Z,1013.60
2018-09-22T11:17:00.529Z,1013.60
2018-09-22T11:18:00.539Z,1013.54
2018-09-22T11:19:00.546Z,1013.52
2018-09-22T11:20:00.522Z,1013.43
2018-09-22T11:21:00.529Z,1013.33
2018-09-22T11:22:00.542Z,1013.32
2018-09-22T11:23:00.548Z,1013.32
2018-09-22T11:24:00.550Z,1013.24
2018-09-22T11:25:00.581Z,1013.29
2018-09-22T11:26:00.567Z,1013.30
2018-09-22T11:27:00.621Z,1013.35
2018-09-22T11:28:00.572Z,1013.28
2018-09-22T11:29:00.673Z,1013.34
2018-09-22T11:30:00.581Z,1013.39
2018-09-22T11:31:00.575Z,1013.36
2018-09-22T11:32:00.652Z,1013.37
2018-09-22T11:33:00.589Z,1013.31
2018-09-22T11:34:00.597Z,1013.38
2018-09-22T11:35:00.610Z,1013.43
2018-09-22T11:36:00.582Z,1013.44
2018-09-22T11:37:00.628Z,1013.46
2018-09-22T11:38:00.621Z,1013.41
2018-09-22T11:39:00.639Z,1013.39
2018-09-22T11:48:15.059Z,1013.33
2018-09-22T11:50:37.581Z,1013.43
2018-09-22T11:52:15.073Z,1013.29
2018-09-22T11:53:12.051Z,1013.35
2018-09-22T11:54:12.564Z,1013.42
2018-09-22T11:55:12.141Z,1013.36
2018-09-22T11:56:10.149Z,1013.28
2018-09-22T11:57:10.085Z,1013.23
2018-09-22T11:58:10.100Z,1013.29
2018-09-22T11:59:10.156Z,1013.24
2018-09-22T12:00:10.084Z,1013.26
2018-09-22T12:01:10.054Z,1013.27
2018-09-22T12:02:10.142Z,1013.29
2018-09-22T12:03:10.154Z,1013.30
2018-09-22T12:04:10.102Z,1013.27
2018-09-22T12:05:11.556Z,1013.24
2018-09-22T12:06:10.128Z,1013.35
2018-09-22T12:07:10.135Z,1013.35
2018-09-22T12:08:10.193Z,1013.30
2018-09-22T12:09:10.146Z,1013.23
2018-09-22T12:10:10.204Z,1013.24
2018-09-22T12:11:10.094Z,1013.20
2018-09-22T12:12:10.088Z,1013.28
2018-09-22T12:13:10.080Z,1013.26
2018-09-22T12:14:10.171Z,1013.31
2018-09-22T12:15:10.069Z,1013.35
2018-09-22T12:16:09.410Z,1013.34